sensor_id;sensor_type;location;lat;lon;timestamp;temperature;humidity
74520;DHT22;63002;48.134;-1.948;2024-03-08T06:00:16;17.80;55.30
74520;DHT22;63002;48.134;-1.948;2024-03-08T06:02:41;17.80;55.30
74520;DHT22;63002;48.134;-1.948;2024-03-08T06:05:08;17.80;55.30
74520;DHT22;63002;48.134;-1.948;2024-03-08T06:07:34;17.80;55.40
74520;DHT22;63002;48.134;-1.948;2024-03-08T06:09:59;17.80;55.30
74520;DHT22;63002;48.134;-1.948;2024-03-08T06:12:25;17.80;55.30
74520;DHT22;63002;48.134;-1.948;2024-03-08T06:14:54;17.80;55.30
74520;DHT22;63002;48.134;-1.948;2024-03-08T06:17:20;17.80;55.30
74520;DHT22;63002;48.134;-1.948;2024-03-08T06:19:45;17.80;55.30
74520;DHT22;63002;48.134;-1.948;2024-03-08T06:22:11;17.80;55.30
74520;DHT22;63002;48.134;-1.948;2024-03-08T06:24:38;17.80;55.30
74520;DHT22;63002;48.134;-1.948;2024-03-08T06:27:04;17.80;55.30
74520;DHT22;63002;48.134;-1.948;2024-03-08T06:29:30;17.80;55.30
74520;DHT22;63002;48.134;-1.948;2024-03-08T06:31:55;17.80;55.30
74520;DHT22;63002;48.134;-1.948;2024-03-08T06:34:21;17.80;55.30
74520;DHT22;63002;48.134;-1.948;2024-03-08T06:36:46;17.70;55.30
74520;DHT22;63002;48.134;-1.948;2024-03-08T06:39:12;17.80;55.30
74520;DHT22;63002;48.134;-1.948;2024-03-08T06:41:38;17.80;55.30
74520;DHT22;63002;48.134;-1.948;2024-03-08T06:44:03;17.80;55.20
74520;DHT22;63002;48.134;-1.948;2024-03-08T06:46:29;17.80;55.20
74520;DHT22;63002;48.134;-1.948;2024-03-08T06:48:54;17.80;55.30
74520;DHT22;63002;48.134;-1.948;2024-03-08T06:51:21;17.70;55.30
74520;DHT22;63002;48.134;-1.948;2024-03-08T06:53:47;17.70;55.30
74520;DHT22;63002;48.134;-1.948;2024-03-08T06:56:14;17.70;55.30
74520;DHT22;63002;48.134;-1.948;2024-03-08T06:58:40;17.70;55.30
74520;DHT22;63002;48.134;-1.948;2024-03-08T07:01:06;17.70;55.30
74520;DHT22;63002;48.134;-1.948;2024-03-08T07:03:33;17.70;55.30
74520;DHT22;63002;48.134;-1.948;2024-03-08T07:05:58;17.70;55.30
74520;DHT22;63002;48.134;-1.948;2024-03-08T07:08:24;17.70;55.30
74520;DHT22;63002;48.134;-1.948;2024-03-08T07:10:50;17.70;55.40
74520;DHT22;63002;48.134;-1.948;2024-03-08T07:13:15;17.70;55.40
74520;DHT22;63002;48.134;-1.948;2024-03-08T07:15:43;17.70;55.30
74520;DHT22;63002;48.134;-1.948;2024-03-08T07:18:08;17.70;55.40
74520;DHT22;63002;48.134;-1.948;2024-03-08T07:20:34;17.70;55.40
74520;DHT22;63002;48.134;-1.948;2024-03-08T07:23:00;17.70;55.40
74520;DHT22;63002;48.134;-1.948;2024-03-08T07:25:25;17.70;55.40
74520;DHT22;63002;48.134;-1.948;2024-03-08T07:27:54;17.70;55.40
74520;DHT22;63002;48.134;-1.948;2024-03-08T07:30:24;17.70;55.50
74520;DHT22;63002;48.134;-1.948;2024-03-08T07:33:08;17.70;55.40
74520;DHT22;63002;48.134;-1.948;2024-03-08T07:35:37;17.70;55.40
74520;DHT22;63002;48.134;-1.948;2024-03-08T07:38:03;17.70;55.40
74520;DHT22;63002;48.134;-1.948;2024-03-08T07:40:29;17.70;55.50
74520;DHT22;63002;48.134;-1.948;2024-03-08T07:42:55;17.70;55.40
74520;DHT22;63002;48.134;-1.948;2024-03-08T07:45:21;17.70;55.50
74520;DHT22;63002;48.134;-1.948;2024-03-08T07:47:47;17.70;55.50
74520;DHT22;63002;48.134;-1.948;2024-03-08T07:50:12;17.70;55.50
74520;DHT22;63002;48.134;-1.948;2024-03-08T07:52:41;17.70;55.50
74520;DHT22;63002;48.134;-1.948;2024-03-08T07:55:07;17.70;55.50
74520;DHT22;63002;48.134;-1.948;2024-03-08T07:57:33;17.70;55.50
74520;DHT22;63002;48.134;-1.948;2024-03-08T07:59:59;17.80;55.30
74520;DHT22;63002;48.134;-1.948;2024-03-08T08:02:25;17.80;55.30
74520;DHT22;63002;48.134;-1.948;2024-03-08T08:04:50;17.80;55.30
74520;DHT22;63002;48.134;-1.948;2024-03-08T08:07:16;17.70;55.40
74520;DHT22;63002;48.134;-1.948;2024-03-08T08:09:42;17.70;55.50
74520;DHT22;63002;48.134;-1.948;2024-03-08T08:12:08;17.60;54.30
74520;DHT22;63002;48.134;-1.948;2024-03-08T08:14:36;17.90;54.10
74520;DHT22;63002;48.134;-1.948;2024-03-08T08:17:01;17.80;54.30
74520;DHT22;63002;48.134;-1.948;2024-03-08T08:19:29;17.80;54.50
74520;DHT22;63002;48.134;-1.948;2024-03-08T08:21:55;17.70;54.80
74520;DHT22;63002;48.134;-1.948;2024-03-08T08:24:22;17.70;55.00
74520;DHT22;63002;48.134;-1.948;2024-03-08T08:26:48;17.70;55.10
74520;DHT22;63002;48.134;-1.948;2024-03-08T08:29:13;17.60;53.50
74520;DHT22;63002;48.134;-1.948;2024-03-08T08:31:40;17.50;54.30
74520;DHT22;63002;48.134;-1.948;2024-03-08T08:34:05;17.60;54.70
74520;DHT22;63002;48.134;-1.948;2024-03-08T08:36:33;17.60;54.70
74520;DHT22;63002;48.134;-1.948;2024-03-08T08:38:59;17.70;54.90
74520;DHT22;63002;48.134;-1.948;2024-03-08T08:41:25;17.70;55.00
74520;DHT22;63002;48.134;-1.948;2024-03-08T08:43:52;17.70;55.10
74520;DHT22;63002;48.134;-1.948;2024-03-08T08:46:19;17.70;55.20
74520;DHT22;63002;48.134;-1.948;2024-03-08T08:48:44;17.70;55.20
74520;DHT22;63002;48.134;-1.948;2024-03-08T08:51:13;17.70;55.30
74520;DHT22;63002;48.134;-1.948;2024-03-08T08:53:43;17.70;55.40
74520;DHT22;63002;48.134;-1.948;2024-03-08T08:56:10;17.70;55.40
74520;DHT22;63002;48.134;-1.948;2024-03-08T08:58:44;17.70;55.40
74520;DHT22;63002;48.134;-1.948;2024-03-08T09:01:10;17.70;55.20
74520;DHT22;63002;48.134;-1.948;2024-03-08T09:03:36;17.60;55.10
74520;DHT22;63002;48.134;-1.948;2024-03-08T09:06:05;17.70;55.20
74520;DHT22;63002;48.134;-1.948;2024-03-08T09:08:38;17.70;55.40
74520;DHT22;63002;48.134;-1.948;2024-03-08T09:11:04;17.70;55.40
74520;DHT22;63002;48.134;-1.948;2024-03-08T09:13:30;17.70;55.50
74520;DHT22;63002;48.134;-1.948;2024-03-08T09:15:56;17.70;55.50
74520;DHT22;63002;48.134;-1.948;2024-03-08T09:18:22;17.70;55.50
74520;DHT22;63002;48.134;-1.948;2024-03-08T09:20:49;17.70;55.50
74520;DHT22;63002;48.134;-1.948;2024-03-08T09:23:15;17.70;55.60
74520;DHT22;63002;48.134;-1.948;2024-03-08T09:25:42;17.70;55.60
74520;DHT22;63002;48.134;-1.948;2024-03-08T09:28:09;17.70;55.60
74520;DHT22;63002;48.134;-1.948;2024-03-08T09:30:37;17.70;55.60
74520;DHT22;63002;48.134;-1.948;2024-03-08T09:33:04;17.70;55.70
74520;DHT22;63002;48.134;-1.948;2024-03-08T09:35:29;17.70;55.70
74520;DHT22;63002;48.134;-1.948;2024-03-08T09:37:55;17.70;55.70
74520;DHT22;63002;48.134;-1.948;2024-03-08T09:40:21;17.60;52.90
74520;DHT22;63002;48.134;-1.948;2024-03-08T09:42:48;17.50;54.70
74520;DHT22;63002;48.134;-1.948;2024-03-08T09:45:14;17.70;54.90
74520;DHT22;63002;48.134;-1.948;2024-03-08T09:47:43;17.90;54.90
74520;DHT22;63002;48.134;-1.948;2024-03-08T09:50:09;17.90;54.90
74520;DHT22;63002;48.134;-1.948;2024-03-08T09:52:47;17.80;55.00
74520;DHT22;63002;48.134;-1.948;2024-03-08T09:55:14;17.80;49.10
74520;DHT22;63002;48.134;-1.948;2024-03-08T09:57:42;17.60;53.80
74520;DHT22;63002;48.134;-1.948;2024-03-08T10:00:28;18.00;53.30
74520;DHT22;63002;48.134;-1.948;2024-03-08T10:02:54;18.20;53.00
74520;DHT22;63002;48.134;-1.948;2024-03-08T10:05:19;18.10;53.40
74520;DHT22;63002;48.134;-1.948;2024-03-08T10:07:47;18.00;53.70
74520;DHT22;63002;48.134;-1.948;2024-03-08T10:10:13;17.90;54.20
74520;DHT22;63002;48.134;-1.948;2024-03-08T10:12:39;17.90;54.50
74520;DHT22;63002;48.134;-1.948;2024-03-08T10:15:07;17.90;54.60
74520;DHT22;63002;48.134;-1.948;2024-03-08T10:17:34;17.90;54.80
74520;DHT22;63002;48.134;-1.948;2024-03-08T10:19:59;17.90;54.90
74520;DHT22;63002;48.134;-1.948;2024-03-08T10:22:25;17.90;55.00
74520;DHT22;63002;48.134;-1.948;2024-03-08T10:24:51;17.90;55.10
74520;DHT22;63002;48.134;-1.948;2024-03-08T10:27:17;18.00;55.20
74520;DHT22;63002;48.134;-1.948;2024-03-08T10:29:42;18.00;55.30
74520;DHT22;63002;48.134;-1.948;2024-03-08T10:32:09;18.00;55.30
74520;DHT22;63002;48.134;-1.948;2024-03-08T10:34:35;18.00;55.30
74520;DHT22;63002;48.134;-1.948;2024-03-08T10:37:07;17.60;54.30
74520;DHT22;63002;48.134;-1.948;2024-03-08T10:39:37;17.70;55.00
74520;DHT22;63002;48.134;-1.948;2024-03-08T10:42:03;17.80;54.70
74520;DHT22;63002;48.134;-1.948;2024-03-08T10:47:00;18.20;55.50
74520;DHT22;63002;48.134;-1.948;2024-03-08T10:49:30;18.50;55.10
74520;DHT22;63002;48.134;-1.948;2024-03-08T10:51:56;18.40;55.20
74520;DHT22;63002;48.134;-1.948;2024-03-08T10:54:22;18.30;55.40
74520;DHT22;63002;48.134;-1.948;2024-03-08T10:56:49;18.30;55.50
74520;DHT22;63002;48.134;-1.948;2024-03-08T10:59:16;18.20;55.60
74520;DHT22;63002;48.134;-1.948;2024-03-08T11:01:43;18.20;55.60
74520;DHT22;63002;48.134;-1.948;2024-03-08T11:04:09;18.20;55.60
74520;DHT22;63002;48.134;-1.948;2024-03-08T11:09:08;18.20;55.70
74520;DHT22;63002;48.134;-1.948;2024-03-08T11:11:38;18.20;55.70
74520;DHT22;63002;48.134;-1.948;2024-03-08T11:14:08;18.20;55.70
74520;DHT22;63002;48.134;-1.948;2024-03-08T11:16:53;18.20;55.70
74520;DHT22;63002;48.134;-1.948;2024-03-08T11:21:45;18.20;55.60
74520;DHT22;63002;48.134;-1.948;2024-03-08T11:24:13;18.30;55.70
74520;DHT22;63002;48.134;-1.948;2024-03-08T11:26:42;18.30;55.70
74520;DHT22;63002;48.134;-1.948;2024-03-08T11:32:15;18.20;55.70
74520;DHT22;63002;48.134;-1.948;2024-03-08T11:34:46;18.20;55.70
74520;DHT22;63002;48.134;-1.948;2024-03-08T11:37:13;18.20;55.70
74520;DHT22;63002;48.134;-1.948;2024-03-08T11:39:41;18.20;55.80
74520;DHT22;63002;48.134;-1.948;2024-03-08T11:42:11;18.20;55.80
74520;DHT22;63002;48.134;-1.948;2024-03-08T11:44:37;18.30;55.80
74520;DHT22;63002;48.134;-1.948;2024-03-08T11:47:07;18.30;55.60
74520;DHT22;63002;48.134;-1.948;2024-03-08T11:49:33;18.30;55.70
74520;DHT22;63002;48.134;-1.948;2024-03-08T11:51:58;18.30;55.70
74520;DHT22;63002;48.134;-1.948;2024-03-08T11:54:24;18.30;55.70
74520;DHT22;63002;48.134;-1.948;2024-03-08T11:56:51;18.30;55.70
74520;DHT22;63002;48.134;-1.948;2024-03-08T11:59:17;18.30;55.70
74520;DHT22;63002;48.134;-1.948;2024-03-08T12:01:43;18.30;55.80
74520;DHT22;63002;48.134;-1.948;2024-03-08T12:04:11;18.30;55.80
74520;DHT22;63002;48.134;-1.948;2024-03-08T12:06:37;18.30;55.80
74520;DHT22;63002;48.134;-1.948;2024-03-08T12:09:09;18.30;55.80
74520;DHT22;63002;48.134;-1.948;2024-03-08T12:11:38;18.30;55.70
74520;DHT22;63002;48.134;-1.948;2024-03-08T12:14:04;18.50;49.80
74520;DHT22;63002;48.134;-1.948;2024-03-08T12:16:31;18.10;53.90
74520;DHT22;63002;48.134;-1.948;2024-03-08T12:18:57;18.40;54.30
74520;DHT22;63002;48.134;-1.948;2024-03-08T12:21:23;17.90;52.90
74520;DHT22;63002;48.134;-1.948;2024-03-08T12:26:29;18.20;54.90
74520;DHT22;63002;48.134;-1.948;2024-03-08T12:29:00;18.40;55.10
74520;DHT22;63002;48.134;-1.948;2024-03-08T12:31:39;18.40;55.00
74520;DHT22;63002;48.134;-1.948;2024-03-08T12:34:07;18.40;55.10
74520;DHT22;63002;48.134;-1.948;2024-03-08T12:36:35;18.30;55.30
74520;DHT22;63002;48.134;-1.948;2024-03-08T12:39:01;18.30;55.40
74520;DHT22;63002;48.134;-1.948;2024-03-08T12:41:29;18.30;55.40
74520;DHT22;63002;48.134;-1.948;2024-03-08T12:43:54;18.30;55.50
74520;DHT22;63002;48.134;-1.948;2024-03-08T12:46:21;18.20;53.00
74520;DHT22;63002;48.134;-1.948;2024-03-08T12:48:47;18.00;55.10
74520;DHT22;63002;48.134;-1.948;2024-03-08T12:51:13;18.10;55.90
74520;DHT22;63002;48.134;-1.948;2024-03-08T12:53:39;18.20;55.20
74520;DHT22;63002;48.134;-1.948;2024-03-08T12:56:10;18.10;54.10
74520;DHT22;63002;48.134;-1.948;2024-03-08T12:58:36;18.30;55.10
74520;DHT22;63002;48.134;-1.948;2024-03-08T13:01:02;18.40;54.80
74520;DHT22;63002;48.134;-1.948;2024-03-08T13:03:35;18.40;55.10
74520;DHT22;63002;48.134;-1.948;2024-03-08T13:06:02;18.40;55.10
74520;DHT22;63002;48.134;-1.948;2024-03-08T13:08:28;18.40;55.20
74520;DHT22;63002;48.134;-1.948;2024-03-08T13:10:55;18.40;55.20
74520;DHT22;63002;48.134;-1.948;2024-03-08T13:13:20;18.40;55.20
74520;DHT22;63002;48.134;-1.948;2024-03-08T13:15:46;18.40;55.20
74520;DHT22;63002;48.134;-1.948;2024-03-08T13:18:12;18.40;55.20
74520;DHT22;63002;48.134;-1.948;2024-03-08T13:20:38;18.40;55.20
74520;DHT22;63002;48.134;-1.948;2024-03-08T13:23:04;18.40;55.20
74520;DHT22;63002;48.134;-1.948;2024-03-08T13:25:30;18.40;55.20
74520;DHT22;63002;48.134;-1.948;2024-03-08T13:27:56;18.40;55.20
74520;DHT22;63002;48.134;-1.948;2024-03-08T13:30:25;18.50;55.20
74520;DHT22;63002;48.134;-1.948;2024-03-08T13:32:52;18.50;55.10
74520;DHT22;63002;48.134;-1.948;2024-03-08T13:35:18;18.50;55.20
74520;DHT22;63002;48.134;-1.948;2024-03-08T13:37:50;18.50;55.30
74520;DHT22;63002;48.134;-1.948;2024-03-08T13:40:16;18.50;55.20
74520;DHT22;63002;48.134;-1.948;2024-03-08T13:42:48;18.40;55.30
74520;DHT22;63002;48.134;-1.948;2024-03-08T13:45:16;18.50;55.30
74520;DHT22;63002;48.134;-1.948;2024-03-08T13:47:49;18.40;55.30
74520;DHT22;63002;48.134;-1.948;2024-03-08T13:50:16;18.50;55.40
74520;DHT22;63002;48.134;-1.948;2024-03-08T13:52:49;18.40;55.40
74520;DHT22;63002;48.134;-1.948;2024-03-08T13:55:17;18.40;55.40
74520;DHT22;63002;48.134;-1.948;2024-03-08T13:57:43;18.40;55.40
74520;DHT22;63002;48.134;-1.948;2024-03-08T14:00:10;18.40;55.40
74520;DHT22;63002;48.134;-1.948;2024-03-08T14:02:36;18.50;54.70
74520;DHT22;63002;48.134;-1.948;2024-03-08T14:05:02;18.40;55.10
74520;DHT22;63002;48.134;-1.948;2024-03-08T14:07:28;18.40;54.70
74520;DHT22;63002;48.134;-1.948;2024-03-08T14:09:57;18.50;55.00
74520;DHT22;63002;48.134;-1.948;2024-03-08T14:12:22;18.50;54.80
74520;DHT22;63002;48.134;-1.948;2024-03-08T14:14:52;18.50;53.90
74520;DHT22;63002;48.134;-1.948;2024-03-08T14:17:17;17.80;53.50
74520;DHT22;63002;48.134;-1.948;2024-03-08T14:19:43;17.90;55.80
74520;DHT22;63002;48.134;-1.948;2024-03-08T14:22:09;18.10;55.80
74520;DHT22;63002;48.134;-1.948;2024-03-08T14:24:38;18.10;55.50
74520;DHT22;63002;48.134;-1.948;2024-03-08T14:27:04;18.20;54.70
74520;DHT22;63002;48.134;-1.948;2024-03-08T14:29:33;18.30;55.00
74520;DHT22;63002;48.134;-1.948;2024-03-08T14:31:59;18.30;54.70
74520;DHT22;63002;48.134;-1.948;2024-03-08T14:34:26;18.30;54.90
74520;DHT22;63002;48.134;-1.948;2024-03-08T14:36:53;18.30;55.00
74520;DHT22;63002;48.134;-1.948;2024-03-08T14:39:19;18.30;55.00
74520;DHT22;63002;48.134;-1.948;2024-03-08T14:41:47;18.30;55.10
74520;DHT22;63002;48.134;-1.948;2024-03-08T14:44:13;18.40;55.20
74520;DHT22;63002;48.134;-1.948;2024-03-08T14:46:38;18.30;55.20
74520;DHT22;63002;48.134;-1.948;2024-03-08T14:49:04;18.40;55.20
74520;DHT22;63002;48.134;-1.948;2024-03-08T14:51:30;18.40;55.20
74520;DHT22;63002;48.134;-1.948;2024-03-08T14:53:56;18.40;55.20
74520;DHT22;63002;48.134;-1.948;2024-03-08T14:56:22;18.40;55.30
74520;DHT22;63002;48.134;-1.948;2024-03-08T14:58:48;18.40;55.30
74520;DHT22;63002;48.134;-1.948;2024-03-08T15:01:15;18.40;55.30
74520;DHT22;63002;48.134;-1.948;2024-03-08T15:03:41;18.40;55.30
74520;DHT22;63002;48.134;-1.948;2024-03-08T15:06:08;18.40;55.30
74520;DHT22;63002;48.134;-1.948;2024-03-08T15:08:37;18.40;55.40
74520;DHT22;63002;48.134;-1.948;2024-03-08T15:11:03;18.40;55.30
74520;DHT22;63002;48.134;-1.948;2024-03-08T15:13:29;18.40;55.40
74520;DHT22;63002;48.134;-1.948;2024-03-08T15:16:07;18.40;55.30
74520;DHT22;63002;48.134;-1.948;2024-03-08T15:18:33;18.40;55.40
74520;DHT22;63002;48.134;-1.948;2024-03-08T15:21:06;18.40;55.40
74520;DHT22;63002;48.134;-1.948;2024-03-08T15:23:33;18.40;55.40
74520;DHT22;63002;48.134;-1.948;2024-03-08T15:25:58;18.40;55.40
74520;DHT22;63002;48.134;-1.948;2024-03-08T15:28:24;18.40;55.50
74520;DHT22;63002;48.134;-1.948;2024-03-08T15:30:57;18.40;55.50
74520;DHT22;63002;48.134;-1.948;2024-03-08T15:33:30;18.40;55.50
74520;DHT22;63002;48.134;-1.948;2024-03-08T15:35:56;18.40;55.50
74520;DHT22;63002;48.134;-1.948;2024-03-08T15:38:28;18.40;55.50
74520;DHT22;63002;48.134;-1.948;2024-03-08T15:40:56;18.40;55.50
74520;DHT22;63002;48.134;-1.948;2024-03-08T15:43:22;18.40;55.50
74520;DHT22;63002;48.134;-1.948;2024-03-08T15:45:48;18.40;55.50
74520;DHT22;63002;48.134;-1.948;2024-03-08T15:48:14;18.40;55.50
74520;DHT22;63002;48.134;-1.948;2024-03-08T15:50:39;18.40;55.50
74520;DHT22;63002;48.134;-1.948;2024-03-08T15:53:05;18.40;55.60
74520;DHT22;63002;48.134;-1.948;2024-03-08T15:55:31;18.40;55.50
74520;DHT22;63002;48.134;-1.948;2024-03-08T15:57:57;18.40;55.60
74520;DHT22;63002;48.134;-1.948;2024-03-08T16:00:25;18.40;55.60
74520;DHT22;63002;48.134;-1.948;2024-03-08T16:03:17;18.40;55.60
74520;DHT22;63002;48.134;-1.948;2024-03-08T16:05:42;18.40;55.60
74520;DHT22;63002;48.134;-1.948;2024-03-08T16:08:11;18.40;55.60
74520;DHT22;63002;48.134;-1.948;2024-03-08T16:10:50;18.40;55.60
74520;DHT22;63002;48.134;-1.948;2024-03-08T16:13:18;18.40;55.60
74520;DHT22;63002;48.134;-1.948;2024-03-08T16:15:45;18.40;55.60
74520;DHT22;63002;48.134;-1.948;2024-03-08T16:18:14;18.40;55.70
74520;DHT22;63002;48.134;-1.948;2024-03-08T16:20:40;18.40;55.60
74520;DHT22;63002;48.134;-1.948;2024-03-08T16:23:06;18.40;55.70
74520;DHT22;63002;48.134;-1.948;2024-03-08T16:25:32;18.40;55.70
74520;DHT22;63002;48.134;-1.948;2024-03-08T16:27:57;18.30;55.10
74520;DHT22;63002;48.134;-1.948;2024-03-08T16:30:23;18.30;55.70
74520;DHT22;63002;48.134;-1.948;2024-03-08T16:32:49;18.40;55.40
74520;DHT22;63002;48.134;-1.948;2024-03-08T16:35:17;18.40;55.40
74520;DHT22;63002;48.134;-1.948;2024-03-08T16:37:43;18.40;55.70
74520;DHT22;63002;48.134;-1.948;2024-03-08T16:40:09;18.40;55.60
74520;DHT22;63002;48.134;-1.948;2024-03-08T16:42:50;18.40;55.70
74520;DHT22;63002;48.134;-1.948;2024-03-08T16:45:19;18.40;55.70
74520;DHT22;63002;48.134;-1.948;2024-03-08T16:47:45;18.40;55.80
74520;DHT22;63002;48.134;-1.948;2024-03-08T16:50:11;18.70;55.60
74520;DHT22;63002;48.134;-1.948;2024-03-08T16:52:40;18.80;55.70
74520;DHT22;63002;48.134;-1.948;2024-03-08T16:55:05;18.90;54.40
74520;DHT22;63002;48.134;-1.948;2024-03-08T16:57:42;18.60;55.60
74520;DHT22;63002;48.134;-1.948;2024-03-08T17:00:18;18.50;55.40
74520;DHT22;63002;48.134;-1.948;2024-03-08T17:02:44;18.50;55.50
74520;DHT22;63002;48.134;-1.948;2024-03-08T17:05:10;18.50;55.80
74520;DHT22;63002;48.134;-1.948;2024-03-08T17:07:36;18.40;56.00
74520;DHT22;63002;48.134;-1.948;2024-03-08T17:10:01;18.50;55.90
74520;DHT22;63002;48.134;-1.948;2024-03-08T17:12:37;18.50;55.90
74520;DHT22;63002;48.134;-1.948;2024-03-08T17:15:04;18.40;56.00
74520;DHT22;63002;48.134;-1.948;2024-03-08T17:17:31;18.40;56.00
74520;DHT22;63002;48.134;-1.948;2024-03-08T17:19:57;18.40;56.00
74520;DHT22;63002;48.134;-1.948;2024-03-08T17:22:22;18.40;56.10
74520;DHT22;63002;48.134;-1.948;2024-03-08T17:24:49;18.40;56.10
74520;DHT22;63002;48.134;-1.948;2024-03-08T17:27:15;18.40;56.10
74520;DHT22;63002;48.134;-1.948;2024-03-08T17:29:41;18.40;56.10
74520;DHT22;63002;48.134;-1.948;2024-03-08T17:32:07;18.30;56.10
74520;DHT22;63002;48.134;-1.948;2024-03-08T17:34:32;18.40;56.10
74520;DHT22;63002;48.134;-1.948;2024-03-08T17:36:58;18.30;56.10
74520;DHT22;63002;48.134;-1.948;2024-03-08T17:39:24;18.30;56.10
74520;DHT22;63002;48.134;-1.948;2024-03-08T17:41:55;18.30;56.10
74520;DHT22;63002;48.134;-1.948;2024-03-08T17:44:22;18.40;56.10
74520;DHT22;63002;48.134;-1.948;2024-03-08T17:46:48;18.30;56.00
74520;DHT22;63002;48.134;-1.948;2024-03-08T17:49:14;18.30;56.00
74520;DHT22;63002;48.134;-1.948;2024-03-08T17:51:40;18.30;56.00
74520;DHT22;63002;48.134;-1.948;2024-03-08T17:54:06;18.30;56.00
74520;DHT22;63002;48.134;-1.948;2024-03-08T17:56:32;18.30;56.10
74520;DHT22;63002;48.134;-1.948;2024-03-08T17:58:59;18.50;55.80
74520;DHT22;63002;48.134;-1.948;2024-03-08T18:01:24;18.80;55.60
74520;DHT22;63002;48.134;-1.948;2024-03-08T18:03:52;18.80;55.50
74520;DHT22;63002;48.134;-1.948;2024-03-08T18:06:18;18.70;55.80
74520;DHT22;63002;48.134;-1.948;2024-03-08T18:08:43;18.60;56.10
74520;DHT22;63002;48.134;-1.948;2024-03-08T18:11:11;18.50;56.20
74520;DHT22;63002;48.134;-1.948;2024-03-08T18:13:36;18.50;56.20
74520;DHT22;63002;48.134;-1.948;2024-03-08T18:16:02;18.50;56.20
74520;DHT22;63002;48.134;-1.948;2024-03-08T18:18:28;18.40;56.20
74520;DHT22;63002;48.134;-1.948;2024-03-08T18:20:53;18.40;56.20
74520;DHT22;63002;48.134;-1.948;2024-03-08T18:23:19;18.40;56.20
74520;DHT22;63002;48.134;-1.948;2024-03-08T18:25:45;18.40;56.20
74520;DHT22;63002;48.134;-1.948;2024-03-08T18:28:12;18.50;56.20
74520;DHT22;63002;48.134;-1.948;2024-03-08T18:30:38;18.40;56.30
74520;DHT22;63002;48.134;-1.948;2024-03-08T18:33:04;18.50;56.30
74520;DHT22;63002;48.134;-1.948;2024-03-08T18:35:30;18.40;56.30
74520;DHT22;63002;48.134;-1.948;2024-03-08T18:37:56;18.40;56.40
74520;DHT22;63002;48.134;-1.948;2024-03-08T18:40:22;18.40;56.30
74520;DHT22;63002;48.134;-1.948;2024-03-08T18:42:48;18.40;56.40
74520;DHT22;63002;48.134;-1.948;2024-03-08T18:45:14;18.40;56.40
74520;DHT22;63002;48.134;-1.948;2024-03-08T18:47:42;18.40;56.50
74520;DHT22;63002;48.134;-1.948;2024-03-08T18:50:09;18.50;56.50
74520;DHT22;63002;48.134;-1.948;2024-03-08T18:52:37;18.60;56.40
74520;DHT22;63002;48.134;-1.948;2024-03-08T18:55:04;18.50;56.50
74520;DHT22;63002;48.134;-1.948;2024-03-08T18:57:40;18.50;56.60
74520;DHT22;63002;48.134;-1.948;2024-03-08T19:00:12;18.50;56.70
74520;DHT22;63002;48.134;-1.948;2024-03-08T19:02:52;18.50;56.80
74520;DHT22;63002;48.134;-1.948;2024-03-08T19:05:18;18.50;56.80
74520;DHT22;63002;48.134;-1.948;2024-03-08T19:07:45;18.40;56.80
74520;DHT22;63002;48.134;-1.948;2024-03-08T19:10:12;18.40;56.80
74520;DHT22;63002;48.134;-1.948;2024-03-08T19:12:41;18.40;56.50
74520;DHT22;63002;48.134;-1.948;2024-03-08T19:15:08;18.40;56.60
74520;DHT22;63002;48.134;-1.948;2024-03-08T19:17:35;18.40;56.70
74520;DHT22;63002;48.134;-1.948;2024-03-08T19:20:03;18.40;56.80
74520;DHT22;63002;48.134;-1.948;2024-03-08T19:22:29;18.40;56.90
74520;DHT22;63002;48.134;-1.948;2024-03-08T19:24:55;18.40;57.10
74520;DHT22;63002;48.134;-1.948;2024-03-08T19:27:20;18.50;57.00
74520;DHT22;63002;48.134;-1.948;2024-03-08T19:29:47;18.40;57.00
74520;DHT22;63002;48.134;-1.948;2024-03-08T19:32:13;18.40;57.00
74520;DHT22;63002;48.134;-1.948;2024-03-08T19:34:39;18.40;57.10
74520;DHT22;63002;48.134;-1.948;2024-03-08T19:37:05;18.40;57.00
74520;DHT22;63002;48.134;-1.948;2024-03-08T19:39:34;18.50;57.10
74520;DHT22;63002;48.134;-1.948;2024-03-08T19:42:00;18.40;57.10
74520;DHT22;63002;48.134;-1.948;2024-03-08T19:44:26;18.40;57.00
74520;DHT22;63002;48.134;-1.948;2024-03-08T19:46:52;18.40;57.10
74520;DHT22;63002;48.134;-1.948;2024-03-08T19:49:17;18.40;57.00
74520;DHT22;63002;48.134;-1.948;2024-03-08T19:51:43;18.40;57.10
74520;DHT22;63002;48.134;-1.948;2024-03-08T19:54:09;18.40;57.00
74520;DHT22;63002;48.134;-1.948;2024-03-08T19:56:38;18.40;57.10
74520;DHT22;63002;48.134;-1.948;2024-03-08T19:59:03;18.40;57.10
74520;DHT22;63002;48.134;-1.948;2024-03-08T20:01:29;18.40;57.00
74520;DHT22;63002;48.134;-1.948;2024-03-08T20:03:55;18.40;57.10
74520;DHT22;63002;48.134;-1.948;2024-03-08T20:06:20;18.40;57.00
74520;DHT22;63002;48.134;-1.948;2024-03-08T20:08:47;18.40;57.10
74520;DHT22;63002;48.134;-1.948;2024-03-08T20:11:12;18.40;57.10
74520;DHT22;63002;48.134;-1.948;2024-03-08T20:13:40;18.40;57.10
74520;DHT22;63002;48.134;-1.948;2024-03-08T20:16:07;18.40;57.10
74520;DHT22;63002;48.134;-1.948;2024-03-08T20:18:34;18.40;57.10
74520;DHT22;63002;48.134;-1.948;2024-03-08T20:21:01;18.40;57.10
74520;DHT22;63002;48.134;-1.948;2024-03-08T20:23:28;18.40;57.10
74520;DHT22;63002;48.134;-1.948;2024-03-08T20:25:54;18.40;57.10
74520;DHT22;63002;48.134;-1.948;2024-03-08T20:28:21;18.40;57.10
74520;DHT22;63002;48.134;-1.948;2024-03-08T20:30:49;18.40;57.10
74520;DHT22;63002;48.134;-1.948;2024-03-08T20:33:16;18.40;57.10
74520;DHT22;63002;48.134;-1.948;2024-03-08T20:35:42;18.40;57.10
74520;DHT22;63002;48.134;-1.948;2024-03-08T20:38:10;18.40;57.10
74520;DHT22;63002;48.134;-1.948;2024-03-08T20:40:36;18.40;57.20
74520;DHT22;63002;48.134;-1.948;2024-03-08T20:43:04;18.40;57.10
74520;DHT22;63002;48.134;-1.948;2024-03-08T20:45:30;18.40;57.10
74520;DHT22;63002;48.134;-1.948;2024-03-08T20:47:57;18.40;57.20
74520;DHT22;63002;48.134;-1.948;2024-03-08T20:50:22;18.40;57.10
74520;DHT22;63002;48.134;-1.948;2024-03-08T20:52:51;18.40;57.10
74520;DHT22;63002;48.134;-1.948;2024-03-08T20:55:18;18.40;57.10
74520;DHT22;63002;48.134;-1.948;2024-03-08T20:57:47;18.40;57.10
74520;DHT22;63002;48.134;-1.948;2024-03-08T21:00:16;18.40;57.20
74520;DHT22;63002;48.134;-1.948;2024-03-08T21:03:03;18.40;57.10
74520;DHT22;63002;48.134;-1.948;2024-03-08T21:05:30;18.30;57.10
74520;DHT22;63002;48.134;-1.948;2024-03-08T21:07:57;18.30;57.10
74520;DHT22;63002;48.134;-1.948;2024-03-08T21:10:22;18.30;57.10
74520;DHT22;63002;48.134;-1.948;2024-03-08T21:12:50;18.30;57.10
74520;DHT22;63002;48.134;-1.948;2024-03-08T21:15:23;18.30;57.10
74520;DHT22;63002;48.134;-1.948;2024-03-08T21:17:48;18.30;57.10
74520;DHT22;63002;48.134;-1.948;2024-03-08T21:20:14;18.30;57.10
74520;DHT22;63002;48.134;-1.948;2024-03-08T21:22:46;18.30;57.10
74520;DHT22;63002;48.134;-1.948;2024-03-08T21:25:14;18.30;57.10
74520;DHT22;63002;48.134;-1.948;2024-03-08T21:27:41;18.30;57.10